Brainard, NY (12024)

10:13 AM EDT on September 02, 2015 (GMT -0400)
Chatham NY Weather Observation Club | | Change Station
CLOSE
Current Station
Personal Weather Station
Location: Chatham, NY
Elevation: 480 ft
Nearby Weather Stations

Elev 480 ft 42.36 °N, 73.60 °W | Updated 5 seconds ago

Clear
Clear
74.8 °F
Feels Like 76 °F
N
2.3
Wind Variable Wind from West
Gusts 2.3 mph

Today
High -- | Low -- °F
--% Chance of Precip.
Yesterday
High -- | Low -- °F
Precip. -- in
6:20 AM 7:27 PM
Waning Gibbous, 80% visible
Pressure 29.97 in
Visibility 10.0 miles
Clouds Clear
Heat Index 76 °F
Dew Point 67 °F
Humidity 76%
Rainfall 0.00 in
Snow Depth Not available.
UV 5 out of 12
Pollen 9.30 out of 12
Air Quality Not available.
Flu Activity Not available.
METAR KPSF 021354Z AUTO 24004KT 10SM CLR 23/18 A3004 RMK AO2 SLP149 T02280178
Pressure 29.97 in
Visibility 10.0 miles
Clouds Clear
Heat Index 76 °F
Dew Point 67 °F
Humidity 76%
Rainfall 0.00 in
Snow Depth Not available.
UV 5 out of 12
Pollen 9.30 out of 12
Air Quality Not available.
Flu Activity Not available.
METAR KPSF 021354Z AUTO 24004KT 10SM CLR 23/18 A3004 RMK AO2 SLP149 T02280178

10-Day Weather Forecast

×

Almanac

Astronomy

Sep. 02, 2015 Rise Set
Actual Time
Civil Twilight
Nautical Twilight
Astronomical Twilight
Moon
Length of Visible Light
Length of Day
Tomorrow will be .
, % of the Moon is Illuminated

Today's Extremes

State Highs State Lows

Community

WunderPhotos

Upload Photos

1,851,758 photos uploaded!

WunderBlogs® & News

Nearby

Air Quality

  Air Quality AQ Index Pollutant
Not available.

Snow Depth

Station Depth Elevation

Earthquake Activity

City Distance Mag. Time & Date
Minimum magnitude displayed is 2.5.

Coastal Water Temperatures

Place Temperature

Stations

Nearby Weather Stations

Station Location Temp. Windchill Dew Point Humidity Wind Precip. Elev Updated Type